Time;durP1;ratioP1;P1;durP2;ratioP2;P2;SDS_P1;SDS_P2;PMS_P1;PMS_P2;Temp;Humidity;BMP_temperature;BMP_pressure;BME280_temperature;BME280_humidity;BME280_pressure;Samples;Min_cycle;Max_cycle;Signal;HPM_P1;HPM_P2
2022/11/06 07:03:01;;;;;;;1.80;1.70;;;;;;;;;;6021612;23;20194;-83
2022/11/06 07:05:26;;;;;;;1.33;1.23;;;;;;;;;;4976870;28;20069;-84
2022/11/06 07:07:52;;;;;;;2.30;2.10;;;;;;;;;;4977955;28;20026;-82
2022/11/06 07:10:17;;;;;;;1.35;1.25;;;;;;;;;;4978034;28;20031;-86
2022/11/06 07:12:42;;;;;;;2.60;1.70;;;;;;;;;;4977876;28;20031;-83
2022/11/06 07:15:09;;;;;;;2.22;1.77;;;;;;;;;;4978187;28;20381;-83
2022/11/06 12:42:19;;;;;;;0.88;0.88;;;;;;;;;;5444867;23;20350;-80
2022/11/06 12:44:46;;;;;;;0.88;0.88;;;;;;;;;;4976111;28;20041;-81
2022/11/06 12:47:50;;;;;;;0.75;0.75;;;;;;;;;;4954337;28;20433;-83
2022/11/06 12:50:56;;;;;;;0.70;0.70;;;;;;;;;;4953415;28;20031;-83
2022/11/06 12:53:46;;;;;;;1.13;1.02;;;;;;;;;;4924822;29;20043;-82
2022/11/06 12:56:36;;;;;;;0.98;0.80;;;;;;;;;;4937708;29;20063;-84
2022/11/06 12:59:31;;;;;;;0.63;0.63;;;;;;;;;;4937987;29;20032;-84
2022/11/06 13:02:14;;;;;;;0.80;0.80;;;;;;;;;;4956871;29;20034;-85
2022/11/06 13:04:54;;;;;;;0.90;0.90;;;;;;;;;;4956637;29;20493;-83
2022/11/06 13:08:02;;;;;;;0.90;0.90;;;;;;;;;;4956486;29;20474;-83
2022/11/06 13:10:45;;;;;;;1.17;1.13;;;;;;;;;;4914001;29;20039;-83
2022/11/06 13:13:32;;;;;;;1.58;1.48;;;;;;;;;;4939191;29;20035;-83
2022/11/06 13:16:22;;;;;;;1.00;1.00;;;;;;;;;;4956388;29;20073;-83
2022/11/06 13:19:05;;;;;;;0.73;0.73;;;;;;;;;;4938131;29;20110;-86
2022/11/06 13:21:49;;;;;;;0.95;0.95;;;;;;;;;;4937492;29;20111;-83
2022/11/06 13:24:21;;;;;;;0.90;0.88;;;;;;;;;;4937083;29;20115;-83
2022/11/06 13:26:53;;;;;;;0.85;0.85;;;;;;;;;;4937405;29;20042;-85
2022/11/06 13:29:21;;;;;;;1.70;0.95;;;;;;;;;;4935342;29;20035;-82
2022/11/06 13:32:09;;;;;;;0.90;0.90;;;;;;;;;;4956214;29;20151;-82
2022/11/06 13:34:38;;;;;;;2.08;1.05;;;;;;;;;;4956233;29;20422;-82
2022/11/06 13:37:16;;;;;;;0.90;0.90;;;;;;;;;;4956211;29;20023;-83
2022/11/06 13:40:09;;;;;;;0.70;0.70;;;;;;;;;;4956047;29;20034;-85
2022/11/06 13:43:08;;;;;;;1.13;1.02;;;;;;;;;;4948376;28;20375;-84
2022/11/06 13:45:49;;;;;;;0.80;0.80;;;;;;;;;;4961904;28;20513;-82
2022/11/06 17:29:00;;;;;;;1.33;1.23;;;;;;;;;;4957830;28;20046;-89
2022/11/06 17:31:26;;;;;;;1.60;1.50;;;;;;;;;;4958801;28;20507;-91
2022/11/06 17:33:52;;;;;;;2.00;1.25;;;;;;;;;;4958362;28;20033;-87
2022/11/06 17:36:25;;;;;;;1.20;1.10;;;;;;;;;;4975813;28;20474;-88
2022/11/06 17:38:52;;;;;;;1.30;1.20;;;;;;;;;;4975512;28;20027;-90
2022/11/06 17:41:28;;;;;;;2.22;2.03;;;;;;;;;;4975731;28;20102;-90
2022/11/06 17:44:00;;;;;;;3.30;2.90;;;;;;;;;;4975938;28;20478;-83
2022/11/06 17:46:31;;;;;;;2.80;2.20;;;;;;;;;;4975778;28;20033;-86
2022/11/06 17:48:58;;;;;;;1.67;1.58;;;;;;;;;;4975916;28;20077;-85
2022/11/06 17:54:08;;;;;;;1.20;1.08;;;;;;;;;;4976429;28;20069;-81
2022/11/06 17:56:33;;;;;;;1.02;1.02;;;;;;;;;;4977073;28;20389;-85
2022/11/06 17:58:59;;;;;;;1.35;1.25;;;;;;;;;;4975180;28;20031;-83
2022/11/06 18:01:26;;;;;;;1.25;1.15;;;;;;;;;;4979346;28;20027;-92
2022/11/06 18:03:52;;;;;;;1.15;1.00;;;;;;;;;;4964180;28;20035;-90
2022/11/06 18:06:18;;;;;;;0.90;0.90;;;;;;;;;;4972670;28;20038;-92
2022/11/06 18:08:44;;;;;;;1.45;1.00;;;;;;;;;;4982736;28;20466;-96
2022/11/06 18:11:10;;;;;;;1.55;1.40;;;;;;;;;;4960671;28;20089;-94
2022/11/06 18:13:36;;;;;;;1.00;1.00;;;;;;;;;;4961233;28;20486;-94
2022/11/06 18:16:02;;;;;;;1.85;1.25;;;;;;;;;;4959262;28;20023;-88
2022/11/06 18:18:28;;;;;;;1.60;1.10;;;;;;;;;;4957824;28;20486;-89
2022/11/06 18:20:54;;;;;;;1.00;1.00;;;;;;;;;;4958986;28;20031;-94
2022/11/06 18:23:19;;;;;;;1.45;1.33;;;;;;;;;;4959592;28;20165;-95
2022/11/06 18:25:54;;;;;;;1.95;1.35;;;;;;;;;;4960684;28;20031;-93
2022/11/06 18:28:19;;;;;;;1.10;1.10;;;;;;;;;;4958679;28;20045;-94
2022/11/06 18:30:45;;;;;;;1.13;1.13;;;;;;;;;;4957877;28;20452;-86
2022/11/06 18:33:10;;;;;;;2.15;1.33;;;;;;;;;;4957878;28;20082;-87
2022/11/06 18:35:37;;;;;;;1.40;1.30;;;;;;;;;;4978763;28;20517;-92
2022/11/06 18:38:03;;;;;;;1.20;1.20;;;;;;;;;;4963046;28;20478;-89
2022/11/06 18:40:29;;;;;;;1.33;1.10;;;;;;;;;;4980041;28;20041;-90
2022/11/06 18:42:54;;;;;;;1.40;1.30;;;;;;;;;;4980356;28;20074;-85
2022/11/06 18:45:20;;;;;;;1.40;1.30;;;;;;;;;;4979143;28;20027;-88
2022/11/06 18:47:45;;;;;;;1.30;1.20;;;;;;;;;;4962507;28;20026;-88
2022/11/06 18:50:11;;;;;;;1.73;1.63;;;;;;;;;;4979133;28;20103;-84
2022/11/06 18:52:36;;;;;;;1.60;1.42;;;;;;;;;;4979544;28;20034;-90
2022/11/06 18:55:02;;;;;;;1.70;1.60;;;;;;;;;;4981970;28;20042;-91
2022/11/06 18:57:28;;;;;;;6.32;4.75;;;;;;;;;;4980334;28;20030;-88
2022/11/06 18:59:54;;;;;;;5.45;4.75;;;;;;;;;;4963588;28;20023;-92
2022/11/06 19:02:20;;;;;;;4.38;3.60;;;;;;;;;;4980325;28;20516;-94
2022/11/06 19:04:45;;;;;;;4.43;3.50;;;;;;;;;;4980278;28;20054;-93
2022/11/06 19:07:11;;;;;;;4.97;3.85;;;;;;;;;;4962300;28;20047;-93
2022/11/06 19:09:37;;;;;;;5.57;4.22;;;;;;;;;;4962196;28;20389;-92
2022/11/06 19:12:03;;;;;;;6.82;4.65;;;;;;;;;;4961666;28;20023;-92
2022/11/06 19:14:28;;;;;;;6.03;4.50;;;;;;;;;;4961932;28;20031;-94
2022/11/06 19:16:53;;;;;;;4.53;3.60;;;;;;;;;;4979367;28;20102;-89
